Aviation Digital Data Service (ADDS)

Output produced by METARs form (1125 UTC 17 June 2019)
found at http://www.aviationweather.gov/metar/data/
 
METAR text: FAPN 170900Z AUTO 21001KT //// // ////// 18/M00 Q1031
Conditions at: FAPN (PILANESBERG , ZA) observed 0900 UTC 17 June 2019
Temperature: 18.0°C (64°F)
Dewpoint: 0.0°C (32°F) [RH = 30%]
Pressure (altimeter): 30.44 inches Hg (1031.0 mb)
Winds: from the SSW (210 degrees) at 1 MPH (1 knots; 0.5 m/s)
Visibility: missing
Ceiling: unknown
Clouds: missing
Weather: no significant weather observed at this time

METAR text: FAPN 170800Z AUTO 20001KT //// // ////// 15/M01 Q1031
Conditions at: FAPN (PILANESBERG , ZA) observed 0800 UTC 17 June 2019
Temperature: 15.0°C (59°F)
Dewpoint: -1.0°C (30°F) [RH = 33%]
Pressure (altimeter): 30.44 inches Hg (1031.0 mb)
Winds: from the SSW (200 degrees) at 1 MPH (1 knots; 0.5 m/s)
Visibility: missing
Ceiling: unknown
Clouds: missing
Weather: no significant weather observed at this time

METAR text: FAPN 170500Z AUTO 25003KT //// // ////// 02/M00 Q1030
Conditions at: FAPN (PILANESBERG , ZA) observed 0500 UTC 17 June 2019
Temperature: 2.0°C (36°F)
Dewpoint: 0.0°C (32°F) [RH = 87%]
Pressure (altimeter): 30.41 inches Hg (1030.0 mb)
Winds: from the WSW (250 degrees) at 3 MPH (3 knots; 1.5 m/s)
Visibility: missing
Ceiling: unknown
Clouds: missing
Weather: no significant weather observed at this time

METAR text: FAPN 170400Z AUTO 23002KT //// // ////// 02/M01 Q1029
Conditions at: FAPN (PILANESBERG , ZA) observed 0400 UTC 17 June 2019
Temperature: 2.0°C (36°F)
Dewpoint: -1.0°C (30°F) [RH = 80%]
Pressure (altimeter): 30.38 inches Hg (1029.0 mb)
Winds: from the SW (230 degrees) at 2 MPH (2 knots; 1.0 m/s)
Visibility: missing
Ceiling: unknown
Clouds: missing
Weather: no significant weather observed at this time

METAR text: FAPN 170100Z AUTO 05001KT //// // ////// 03/M01 Q1028
Conditions at: FAPN (PILANESBERG , ZA) observed 0100 UTC 17 June 2019
Temperature: 3.0°C (37°F)
Dewpoint: -1.0°C (30°F) [RH = 75%]
Pressure (altimeter): 30.35 inches Hg (1028.0 mb)
Winds: from the NE (50 degrees) at 1 MPH (1 knots; 0.5 m/s)
Visibility: missing
Ceiling: unknown
Clouds: missing
Weather: no significant weather observed at this time

METAR text: FAPN 170000Z AUTO 35001KT //// // ////// 02/M00 Q1028
Conditions at: FAPN (PILANESBERG , ZA) observed 0000 UTC 17 June 2019
Temperature: 2.0°C (36°F)
Dewpoint: 0.0°C (32°F) [RH = 87%]
Pressure (altimeter): 30.35 inches Hg (1028.0 mb)
Winds: from the N (350 degrees) at 1 MPH (1 knots; 0.5 m/s)
Visibility: missing
Ceiling: unknown
Clouds: missing
Weather: no significant weather observed at this time

METAR text: FAPN 162100Z AUTO 00000KT //// // ////// 06/M00 Q1028
Conditions at: FAPN (PILANESBERG , ZA) observed 2100 UTC 16 June 2019
Temperature: 6.0°C (43°F)
Dewpoint: 0.0°C (32°F) [RH = 65%]
Pressure (altimeter): 30.35 inches Hg (1028.0 mb)
Winds: calm
Visibility: missing
Ceiling: unknown
Clouds: missing
Weather: no significant weather observed at this time

METAR text: FAPN 162000Z AUTO 22001KT //// // ////// 06/M00 Q1028
Conditions at: FAPN (PILANESBERG , ZA) observed 2000 UTC 16 June 2019
Temperature: 6.0°C (43°F)
Dewpoint: 0.0°C (32°F) [RH = 65%]
Pressure (altimeter): 30.35 inches Hg (1028.0 mb)
Winds: from the SW (220 degrees) at 1 MPH (1 knots; 0.5 m/s)
Visibility: missing
Ceiling: unknown
Clouds: missing
Weather: no significant weather observed at this time

METAR text: FAPN 161900Z AUTO 00000KT //// // ////// 09/M00 Q1028
Conditions at: FAPN (PILANESBERG , ZA) observed 1900 UTC 16 June 2019
Temperature: 9.0°C (48°F)
Dewpoint: 0.0°C (32°F) [RH = 53%]
Pressure (altimeter): 30.35 inches Hg (1028.0 mb)
Winds: calm
Visibility: missing
Ceiling: unknown
Clouds: missing
Weather: no significant weather observed at this time

METAR text: FAPN 161800Z AUTO 27006KT //// // ////// 12/M00 Q1027
Conditions at: FAPN (PILANESBERG , ZA) observed 1800 UTC 16 June 2019
Temperature: 12.0°C (54°F)
Dewpoint: 0.0°C (32°F) [RH = 44%]
Pressure (altimeter): 30.32 inches Hg (1027.0 mb)
Winds: from the W (270 degrees) at 7 MPH (6 knots; 3.1 m/s)
Visibility: missing
Ceiling: unknown
Clouds: missing
Weather: no significant weather observed at this time

METAR text: FAPN 161700Z AUTO 27007KT //// // ////// 12/M00 Q1027
Conditions at: FAPN (PILANESBERG , ZA) observed 1700 UTC 16 June 2019
Temperature: 12.0°C (54°F)
Dewpoint: 0.0°C (32°F) [RH = 44%]
Pressure (altimeter): 30.32 inches Hg (1027.0 mb)
Winds: from the W (270 degrees) at 8 MPH (7 knots; 3.6 m/s)
Visibility: missing
Ceiling: unknown
Clouds: missing
Weather: no significant weather observed at this time

METAR text: FAPN 161300Z AUTO 07002KT //// // ////// 23/M00 Q1026
Conditions at: FAPN (PILANESBERG , ZA) observed 1300 UTC 16 June 2019
Temperature: 23.0°C (73°F)
Dewpoint: 0.0°C (32°F) [RH = 22%]
Pressure (altimeter): 30.30 inches Hg (1026.0 mb)
Winds: from the ENE (70 degrees) at 2 MPH (2 knots; 1.0 m/s)
Visibility: missing
Ceiling: unknown
Clouds: missing
Weather: no significant weather observed at this time

METAR text: FAPN 161000Z AUTO 00000KT //// // ////// 20/02 Q1028
Conditions at: FAPN (PILANESBERG , ZA) observed 1000 UTC 16 June 2019
Temperature: 20.0°C (68°F)
Dewpoint: 2.0°C (36°F) [RH = 30%]
Pressure (altimeter): 30.35 inches Hg (1028.0 mb)
Winds: calm
Visibility: missing
Ceiling: unknown
Clouds: missing
Weather: no significant weather observed at this time

METAR text: FAPN 160900Z AUTO 00000KT //// // ////// 18/03 Q1029
Conditions at: FAPN (PILANESBERG , ZA) observed 0900 UTC 16 June 2019
Temperature: 18.0°C (64°F)
Dewpoint: 3.0°C (37°F) [RH = 37%]
Pressure (altimeter): 30.38 inches Hg (1029.0 mb)
Winds: calm
Visibility: missing
Ceiling: unknown
Clouds: missing
Weather: no significant weather observed at this time

METAR text: FAPN 160800Z AUTO 20001KT //// // ////// 14/03 Q1030
Conditions at: FAPN (PILANESBERG , ZA) observed 0800 UTC 16 June 2019
Temperature: 14.0°C (57°F)
Dewpoint: 3.0°C (37°F) [RH = 47%]
Pressure (altimeter): 30.41 inches Hg (1030.0 mb)
Winds: from the SSW (200 degrees) at 1 MPH (1 knots; 0.5 m/s)
Visibility: missing
Ceiling: unknown
Clouds: missing
Weather: no significant weather observed at this time

METAR text: FAPN 160700Z AUTO 20001KT //// // ////// 08/02 Q1030
Conditions at: FAPN (PILANESBERG , ZA) observed 0700 UTC 16 June 2019
Temperature: 8.0°C (46°F)
Dewpoint: 2.0°C (36°F) [RH = 66%]
Pressure (altimeter): 30.41 inches Hg (1030.0 mb)
Winds: from the SSW (200 degrees) at 1 MPH (1 knots; 0.5 m/s)
Visibility: missing
Ceiling: unknown
Clouds: missing
Weather: no significant weather observed at this time

METAR text: FAPN 160600Z AUTO 00000KT //// // ////// 05/01 Q1029
Conditions at: FAPN (PILANESBERG , ZA) observed 0600 UTC 16 June 2019
Temperature: 5.0°C (41°F)
Dewpoint: 1.0°C (34°F) [RH = 75%]
Pressure (altimeter): 30.38 inches Hg (1029.0 mb)
Winds: calm
Visibility: missing
Ceiling: unknown
Clouds: missing
Weather: no significant weather observed at this time

METAR text: FAPN 160300Z AUTO 00000KT //// // ////// 00/M00 Q1027
Conditions at: FAPN (PILANESBERG , ZA) observed 0300 UTC 16 June 2019
Temperature: 0.0°C (32°F)
Dewpoint: 0.0°C (32°F) [RH = 100%]
Pressure (altimeter): 30.32 inches Hg (1027.0 mb)
Winds: calm
Visibility: missing
Ceiling: unknown
Clouds: missing
Weather: no significant weather observed at this time

METAR text: FAPN 160200Z AUTO 00000KT //// // ////// 01/M00 Q1027
Conditions at: FAPN (PILANESBERG , ZA) observed 0200 UTC 16 June 2019
Temperature: 1.0°C (34°F)
Dewpoint: 0.0°C (32°F) [RH = 93%]
Pressure (altimeter): 30.32 inches Hg (1027.0 mb)
Winds: calm
Visibility: missing
Ceiling: unknown
Clouds: missing
Weather: no significant weather observed at this time

METAR text: FAPN 160100Z AUTO 00000KT //// // ////// 02/01 Q1028
Conditions at: FAPN (PILANESBERG , ZA) observed 0100 UTC 16 June 2019
Temperature: 2.0°C (36°F)
Dewpoint: 1.0°C (34°F) [RH = 93%]
Pressure (altimeter): 30.35 inches Hg (1028.0 mb)
Winds: calm
Visibility: missing
Ceiling: unknown
Clouds: missing
Weather: no significant weather observed at this time

METAR text: FAPN 160000Z AUTO 02001KT //// // ////// 03/01 Q1028
Conditions at: FAPN (PILANESBERG , ZA) observed 0000 UTC 16 June 2019
Temperature: 3.0°C (37°F)
Dewpoint: 1.0°C (34°F) [RH = 87%]
Pressure (altimeter): 30.35 inches Hg (1028.0 mb)
Winds: from the NNE (20 degrees) at 1 MPH (1 knots; 0.5 m/s)
Visibility: missing
Ceiling: unknown
Clouds: missing
Weather: no significant weather observed at this time